Time;durP1;ratioP1;P1;durP2;ratioP2;P2;SDS_P1;SDS_P2;PMS_P1;PMS_P2;Temp;Humidity;BMP_temperature;BMP_pressure;BME280_temperature;BME280_humidity;BME280_pressure;Samples;Min_cycle;Max_cycle;Signal;HPM_P1;HPM_P2
2023/07/28 00:02:36;;;;;;;3.17;1.33;;;17.30;91.30;;;16.22;76.49;99728.44;10286616;28;96953;-88
2023/07/28 00:07:40;;;;;;;4.30;1.30;;;17.30;91.40;;;16.31;76.44;99724.47;10266473;28;96653;-87
2023/07/28 00:12:43;;;;;;;2.30;1.50;;;17.50;91.60;;;16.40;76.34;99727.72;10275705;28;97015;-87
2023/07/28 00:17:47;;;;;;;2.72;1.83;;;17.50;91.60;;;16.44;76.33;99734.31;10276967;28;96649;-87
2023/07/28 00:22:51;;;;;;;2.22;1.20;;;17.60;91.70;;;16.49;76.03;99726.41;10275263;28;96556;-87
2023/07/28 00:27:55;;;;;;;2.47;1.60;;;17.60;91.70;;;16.56;75.94;99724.50;10260242;28;96516;-87
2023/07/28 00:32:59;;;;;;;2.65;1.15;;;17.70;91.90;;;16.60;75.54;99718.47;10290132;28;96922;-87
2023/07/28 00:38:04;;;;;;;2.50;1.40;;;17.80;91.80;;;16.62;76.24;99717.47;10275288;28;97955;-87
2023/07/28 00:43:08;;;;;;;3.05;1.10;;;17.80;91.90;;;16.65;75.66;99711.63;10275848;28;98022;-87
2023/07/28 00:48:14;;;;;;;2.10;1.70;;;17.80;91.90;;;16.74;75.64;99705.00;10274982;28;96717;-87
2023/07/28 00:53:18;;;;;;;2.90;1.60;;;17.90;92.00;;;16.81;75.43;99714.63;10279227;28;96700;-88
2023/07/28 00:58:22;;;;;;;3.80;1.38;;;17.90;91.90;;;16.89;75.49;99710.00;10270703;28;97549;-87
2023/07/28 01:03:26;;;;;;;2.15;1.40;;;18.00;91.90;;;16.95;74.63;99715.31;10249882;28;98028;-87
2023/07/28 01:08:52;;;;;;;2.53;1.15;;;18.10;91.80;;;17.00;74.61;99717.34;10293552;28;96784;-87
2023/07/28 01:13:55;;;;;;;3.10;1.45;;;18.10;91.90;;;16.99;74.98;99708.47;10284947;28;96698;-87
2023/07/28 01:18:59;;;;;;;2.53;1.58;;;18.10;91.90;;;16.99;74.73;99699.59;10266482;28;96529;-87
2023/07/28 01:24:50;;;;;;;4.80;1.60;;;18.10;91.90;;;17.02;74.47;99704.50;10273835;28;96585;-88
2023/07/28 01:29:54;;;;;;;2.15;1.30;;;18.20;92.00;;;17.05;74.52;99704.09;10257593;28;96862;-88
2023/07/28 01:34:58;;;;;;;2.88;1.60;;;18.20;92.00;;;17.03;74.62;99693.56;10288833;28;97222;-86
2023/07/28 01:40:02;;;;;;;1.90;1.38;;;18.20;92.00;;;17.05;74.40;99678.06;10273283;28;96523;-86
2023/07/28 01:45:07;;;;;;;2.45;1.40;;;18.20;92.00;;;17.05;74.21;99688.78;10289306;28;96709;-86
2023/07/28 01:50:10;;;;;;;2.58;1.30;;;18.20;91.90;;;17.08;73.94;99687.50;10252762;28;97984;-85
2023/07/28 01:55:14;;;;;;;1.98;1.15;;;18.20;91.90;;;17.13;73.78;99693.03;10275410;28;96417;-86
2023/07/28 02:00:18;;;;;;;2.75;2.00;;;18.20;92.00;;;17.18;73.81;99687.84;10244011;28;96712;-86
2023/07/28 02:05:22;;;;;;;3.22;1.42;;;18.30;91.90;;;17.21;73.70;99684.69;10274820;28;96688;-85
2023/07/28 02:10:29;;;;;;;3.28;1.40;;;18.40;92.00;;;17.25;74.01;99683.19;10289513;28;96858;-86
2023/07/28 02:15:33;;;;;;;2.90;1.60;;;18.40;92.00;;;17.23;73.96;99671.88;10253369;28;96633;-86
2023/07/28 02:20:37;;;;;;;3.85;1.77;;;18.40;92.10;;;17.27;73.87;99678.44;10259927;28;96702;-86
2023/07/28 02:25:41;;;;;;;3.55;1.95;;;18.40;92.10;;;17.30;73.86;99680.66;10272159;28;96686;-85
2023/07/28 02:30:45;;;;;;;3.33;2.03;;;18.40;92.20;;;17.34;74.59;99683.75;10268127;28;96544;-86
2023/07/28 02:35:48;;;;;;;2.85;1.70;;;18.50;92.40;;;17.37;74.78;99681.41;10255244;28;96478;-86
2023/07/28 02:40:52;;;;;;;2.80;1.83;;;18.50;92.40;;;17.43;74.60;99676.19;10285690;28;96610;-86
2023/07/28 02:45:58;;;;;;;3.35;1.67;;;18.60;92.50;;;17.38;75.27;99677.66;10288615;28;96659;-86
2023/07/28 02:51:02;;;;;;;3.17;1.80;;;18.50;92.60;;;17.41;75.50;99680.97;10271098;28;98439;-86
2023/07/28 02:56:06;;;;;;;3.15;1.88;;;18.50;92.70;;;17.41;75.70;99675.59;10279778;28;96770;-87
2023/07/28 03:01:10;;;;;;;4.20;1.83;;;18.60;92.90;;;17.41;75.34;99664.84;10277491;28;97067;-88
2023/07/28 03:06:14;;;;;;;3.53;1.88;;;18.60;92.90;;;17.39;75.32;99657.84;10296719;28;96405;-88
2023/07/28 03:11:18;;;;;;;4.20;1.75;;;18.60;93.00;;;17.38;75.40;99658.88;10253733;28;98068;-88
2023/07/28 03:16:22;;;;;;;4.43;1.92;;;18.60;93.00;;;17.38;75.63;99669.63;10252745;28;96572;-88
2023/07/28 03:21:30;;;;;;;3.10;1.77;;;18.50;92.90;;;17.35;75.79;99667.41;10254827;28;96640;-88
2023/07/28 03:26:34;;;;;;;2.83;1.52;;;18.50;93.10;;;17.31;76.48;99668.88;10257427;28;96650;-88
2023/07/28 03:31:38;;;;;;;2.63;1.90;;;18.40;93.20;;;17.30;75.78;99664.56;10250924;28;98182;-88
2023/07/28 03:36:42;;;;;;;3.30;2.40;;;18.40;93.10;;;17.28;75.34;99672.03;10253612;28;96603;-88
2023/07/28 03:41:46;;;;;;;3.58;1.50;;;18.40;93.10;;;17.24;75.53;99676.19;10265823;28;96888;-87
2023/07/28 03:46:49;;;;;;;3.55;1.70;;;18.40;93.10;;;17.21;75.23;99681.19;10251443;28;98408;-88
2023/07/28 03:51:53;;;;;;;2.45;1.52;;;18.40;93.10;;;17.21;74.97;99682.00;10246342;28;97273;-87
2023/07/28 03:56:56;;;;;;;2.92;1.58;;;18.30;93.00;;;17.28;75.01;99682.78;10252416;28;96860;-88
2023/07/28 04:02:00;;;;;;;3.03;1.80;;;18.40;93.10;;;17.32;74.30;99673.19;10263901;28;98437;-88
2023/07/28 04:07:04;;;;;;;4.18;2.10;;;18.50;92.90;;;17.36;75.33;99681.63;10253744;28;97454;-88
2023/07/28 04:12:08;;;;;;;2.15;1.60;;;18.50;93.00;;;17.37;75.33;99676.03;10282841;28;98730;-88
2023/07/28 04:17:12;;;;;;;3.00;2.08;;;18.50;93.10;;;17.39;75.18;99687.41;10271512;28;97893;-88
2023/07/28 04:22:21;;;;;;;2.85;1.80;;;18.50;93.20;;;17.36;74.26;99677.09;10289567;28;96567;-88
2023/07/28 04:27:24;;;;;;;2.45;1.35;;;18.50;92.90;;;17.35;74.62;99680.81;10272894;28;98190;-89
2023/07/28 04:32:28;;;;;;;6.82;1.67;;;18.50;93.00;;;17.35;75.19;99674.63;10259698;28;97129;-87
2023/07/28 04:37:31;;;;;;;4.38;1.98;;;18.50;93.10;;;17.37;75.70;99675.22;10286165;28;98716;-89
2023/07/28 04:42:36;;;;;;;3.53;2.25;;;18.50;93.10;;;17.43;75.14;99668.94;10260800;28;98224;-90
2023/07/28 04:47:39;;;;;;;4.05;2.17;;;18.60;93.10;;;17.48;74.57;99657.53;10288655;28;97235;-89
2023/07/28 04:52:44;;;;;;;5.43;1.80;;;18.60;93.00;;;17.54;74.56;99653.94;10275409;28;96596;-89
2023/07/28 04:57:48;;;;;;;10.15;2.10;;;18.70;93.10;;;17.65;74.35;99639.75;10276299;28;96531;-89
2023/07/28 05:02:51;;;;;;;6.30;2.10;;;18.80;92.80;;;17.80;73.56;99650.09;10276193;28;96671;-90
2023/07/28 05:07:55;;;;;;;4.32;2.10;;;18.90;92.70;;;17.91;72.83;99649.31;10258486;28;96588;-88
2023/07/28 05:12:59;;;;;;;5.25;1.90;;;19.00;92.50;;;18.05;72.71;99641.88;10274342;28;96769;-89
2023/07/28 05:18:02;;;;;;;2.60;1.50;;;19.20;92.50;;;18.18;72.06;99655.97;10291183;28;96491;-90
2023/07/28 05:23:06;;;;;;;5.45;2.10;;;19.30;92.30;;;18.28;71.27;99633.84;10292712;28;96452;-89
2023/07/28 05:28:09;;;;;;;5.35;2.28;;;19.50;92.20;;;18.41;71.74;99654.34;10274912;28;96496;-88
2023/07/28 05:33:13;;;;;;;5.85;2.03;;;19.50;92.10;;;18.45;71.44;99653.66;10295203;28;97845;-89
2023/07/28 05:38:16;;;;;;;6.30;2.15;;;19.60;92.10;;;18.54;71.80;99658.69;10274197;28;96529;-89
2023/07/28 05:43:20;;;;;;;5.85;2.00;;;19.70;92.30;;;18.62;71.63;99656.47;10273695;28;96711;-89
2023/07/28 05:48:24;;;;;;;4.22;1.38;;;19.80;92.40;;;18.77;71.15;99658.72;10287415;28;96807;-90
2023/07/28 05:53:28;;;;;;;8.35;7.03;;;19.90;91.90;;;18.95;69.26;99672.09;10258354;28;97547;-89
2023/07/28 05:58:32;;;;;;;5.82;4.80;;;20.10;91.30;;;19.09;65.49;99682.59;10273061;28;96793;-90
2023/07/28 06:03:36;;;;;;;12.25;10.82;;;20.30;90.50;;;19.25;65.89;99687.25;10269732;28;97001;-90
2023/07/28 06:08:39;;;;;;;13.73;10.48;;;20.40;90.60;;;19.42;63.77;99698.09;10261825;28;98585;-92
2023/07/28 06:13:44;;;;;;;4.15;2.50;;;20.50;89.50;;;19.56;61.72;99685.19;10271233;28;98164;-92
2023/07/28 06:18:47;;;;;;;2.20;1.20;;;20.70;87.60;;;19.75;60.31;99682.09;10255698;28;96684;-91
2023/07/28 06:23:51;;;;;;;2.13;1.33;;;20.80;86.40;;;19.93;60.25;99686.50;10280377;28;98700;-90
2023/07/28 06:28:54;;;;;;;2.63;1.42;;;21.00;86.00;;;20.18;59.76;99680.72;10267197;28;98489;-89
2023/07/28 06:33:58;;;;;;;1.60;1.05;;;21.30;85.10;;;20.33;57.24;99680.16;10254773;28;97580;-90
2023/07/28 06:39:02;;;;;;;1.40;1.00;;;21.50;83.40;;;20.44;57.29;99673.06;10260238;28;98710;-91
2023/07/28 06:44:08;;;;;;;1.85;0.98;;;21.60;82.80;;;20.60;57.75;99671.47;10274032;28;97566;-91
2023/07/28 06:49:12;;;;;;;2.22;1.20;;;21.70;83.10;;;20.73;58.33;99663.84;10263133;28;96723;-89
2023/07/28 06:54:15;;;;;;;1.70;1.30;;;21.80;83.10;;;20.96;58.41;99660.13;10279468;28;96416;-90
2023/07/28 06:59:19;;;;;;;1.85;1.20;;;22.10;82.80;;;21.14;57.08;99655.50;10281840;28;96862;-86
2023/07/28 07:04:25;;;;;;;4.05;1.40;;;22.30;82.10;;;21.22;55.87;99641.53;10278213;28;97502;-85
2023/07/28 07:09:29;;;;;;;1.55;1.10;;;22.40;80.40;;;21.22;55.51;99642.34;10265905;28;96605;-85
2023/07/28 07:14:33;;;;;;;2.08;1.20;;;22.30;79.60;;;21.25;54.55;99657.28;10291481;28;97941;-85
2023/07/28 07:19:39;;;;;;;3.25;1.35;;;22.40;79.20;;;21.22;54.93;99641.53;10278296;28;97506;-85
2023/07/28 07:24:43;;;;;;;2.28;1.27;;;22.30;78.90;;;21.25;55.88;99647.28;10278458;28;98094;-85
2023/07/28 07:29:47;;;;;;;1.73;1.08;;;22.30;79.90;;;21.31;55.82;99650.88;10273647;28;96569;-84
2023/07/28 07:34:53;;;;;;;2.97;1.60;;;22.40;79.90;;;21.42;54.82;99647.25;10278319;28;96557;-83
2023/07/28 07:39:56;;;;;;;3.47;2.15;;;22.60;79.20;;;21.63;55.15;99643.69;10276186;28;96625;-84
2023/07/28 07:45:00;;;;;;;1.70;1.20;;;22.70;79.20;;;21.88;53.82;99626.09;10275854;28;96594;-85
2023/07/28 07:50:05;;;;;;;2.90;1.20;;;22.90;77.70;;;22.11;53.81;99642.03;10293343;28;96871;-85
2023/07/28 07:55:13;;;;;;;1.73;1.10;;;23.20;77.50;;;22.13;53.05;99639.06;10294528;28;96700;-85
2023/07/28 08:00:18;;;;;;;;;;;23.30;77.10;;;22.08;51.46;99634.41;10277039;28;96648;-85
2023/07/28 08:05:22;;;;;;;3.20;1.23;;;23.20;76.30;;;21.98;52.42;99647.84;10257257;28;97820;-85
2023/07/28 08:10:26;;;;;;;2.90;1.75;;;23.10;76.40;;;21.93;53.07;99642.38;10274907;28;96801;-84
2023/07/28 08:15:30;;;;;;;3.05;1.70;;;23.10;76.40;;;21.89;53.01;99644.78;10262170;28;96559;-85
2023/07/28 08:20:33;;;;;;;1.92;1.40;;;23.00;76.90;;;21.91;53.56;99633.72;10270037;28;96522;-84
2023/07/28 08:25:37;;;;;;;3.22;1.23;;;23.00;77.30;;;21.91;53.79;99628.28;10307826;28;96501;-85
2023/07/28 08:30:41;;;;;;;1.48;0.85;;;23.00;77.60;;;21.93;54.38;99623.44;10275575;28;96634;-91
2023/07/28 08:35:44;;;;;;;2.05;1.13;;;23.00;77.80;;;22.00;54.09;99632.16;10264272;28;96544;-96
2023/07/28 08:41:00;;;;;;;3.03;1.40;;;23.10;77.30;;;22.10;54.46;99616.06;10286374;28;96556;-95
2023/07/28 08:46:03;;;;;;;1.45;0.90;;;23.30;77.50;;;22.42;54.93;99607.91;10271686;28;97460;-91
2023/07/28 08:51:11;;;;;;;4.50;1.45;;;23.50;78.00;;;22.79;53.16;99606.25;10274509;28;96710;-94
2023/07/28 08:56:16;;;;;;;3.20;1.33;;;23.90;77.10;;;23.15;51.30;99599.13;10281316;28;96592;-96
2023/07/28 09:01:23;;;;;;;5.03;1.48;;;24.20;75.30;;;23.52;51.28;99599.00;10265200;28;96811;-96
2023/07/28 09:06:31;;;;;;;2.80;1.77;;;24.50;75.00;;;23.72;49.21;99590.13;10242092;28;98612;-96
2023/07/28 11:48:05;;;;;;;3.85;1.40;;;28.70;66.80;;;28.38;42.40;99507.88;10537802;27;98017;-89
2023/07/28 11:53:11;;;;;;;8.63;1.38;;;29.00;66.90;;;28.59;41.14;99497.34;10448352;27;96616;-90
2023/07/28 11:58:15;;;;;;;2.78;1.42;;;29.40;65.20;;;28.77;42.00;99493.69;10429734;27;96566;-89
2023/07/28 12:03:19;;;;;;;3.15;1.30;;;29.70;65.30;;;29.05;40.79;99495.31;10445639;27;96504;-90
2023/07/28 12:08:39;;;;;;;2.20;1.58;;;30.10;64.00;;;29.15;40.24;99485.25;10448814;27;96526;-90
2023/07/28 12:13:53;;;;;;;2.03;1.20;;;30.20;62.90;;;29.32;39.24;99477.19;10428216;27;96515;-89
2023/07/28 12:18:59;;;;;;;2.33;1.52;;;30.40;62.20;;;29.40;40.67;99490.16;10427352;27;96723;-90
2023/07/28 12:24:03;;;;;;;2.95;1.17;;;30.50;63.10;;;29.44;38.67;99482.09;10469046;27;96508;-87
2023/07/28 12:29:10;;;;;;;2.22;1.40;;;30.50;61.10;;;29.53;37.79;99480.28;10440464;27;96518;-87
2023/07/28 12:34:14;;;;;;;1.77;1.10;;;30.60;59.50;;;29.50;36.51;99483.59;10441257;27;97137;-89
2023/07/28 12:39:21;;;;;;;2.72;1.20;;;30.70;58.40;;;29.45;37.62;99472.78;10447402;27;97976;-88
2023/07/28 12:44:27;;;;;;;2.20;1.60;;;30.60;58.50;;;29.49;36.73;99466.38;10422505;27;96506;-88
2023/07/28 12:49:37;;;;;;;1.88;1.40;;;30.60;58.00;;;29.73;36.03;99455.13;10421682;27;96686;-86
2023/07/28 12:54:42;;;;;;;1.83;1.48;;;30.80;57.50;;;30.04;37.00;99460.63;10430801;27;98020;-86
2023/07/28 12:59:46;;;;;;;2.95;1.30;;;31.10;57.90;;;30.41;35.25;99457.72;10424213;27;96419;-86
2023/07/28 13:04:53;;;;;;;2.15;1.25;;;31.50;56.60;;;30.65;34.57;99458.97;10428763;27;96758;-87
2023/07/28 13:09:59;;;;;;;1.73;1.33;;;32.00;55.80;;;31.00;34.33;99461.75;10424997;27;98151;-87
2023/07/28 13:15:04;;;;;;;3.83;1.50;;;32.50;55.40;;;31.11;34.55;99452.09;10426723;27;97970;-86
2023/07/28 13:20:09;;;;;;;2.85;1.50;;;32.90;54.50;;;31.62;34.81;99452.44;10430862;27;96623;-86
2023/07/28 13:25:12;;;;;;;1.75;1.33;;;33.30;54.50;;;31.63;33.13;99456.78;10398325;27;96698;-87
2023/07/28 13:30:16;;;;;;;2.85;1.63;;;33.40;53.20;;;31.14;33.82;99458.91;10394058;27;96617;-87
2023/07/28 13:35:20;;;;;;;1.70;1.42;;;32.80;54.00;;;30.56;34.88;99460.06;10419246;27;96754;-87
2023/07/28 13:40:24;;;;;;;4.60;1.45;;;32.00;54.10;;;29.97;35.66;99460.25;10423832;27;96628;-87
2023/07/28 13:45:30;;;;;;;2.30;1.20;;;31.30;54.90;;;29.59;36.41;99465.38;10454947;27;96648;-88
2023/07/28 13:50:34;;;;;;;2.00;1.27;;;30.70;55.90;;;29.47;37.62;99473.28;10420109;27;98414;-88
2023/07/28 13:55:41;;;;;;;2.95;1.25;;;30.50;56.70;;;29.28;38.13;99473.47;10407336;27;96806;-87
2023/07/28 14:00:44;;;;;;;3.72;1.52;;;30.30;57.30;;;29.35;38.61;99460.16;10395171;27;96608;-88
2023/07/28 14:05:48;;;;;;;3.03;1.30;;;30.30;57.90;;;29.47;38.49;99446.72;10408434;27;97968;-89
2023/07/28 14:10:53;;;;;;;2.38;1.27;;;30.50;57.80;;;29.61;38.27;99452.16;10408177;27;98674;-88
2023/07/28 14:15:56;;;;;;;1.85;1.20;;;30.60;57.80;;;29.74;38.01;99455.94;10422346;27;96735;-87
2023/07/28 14:20:59;;;;;;;3.33;1.15;;;30.80;57.80;;;29.97;39.44;99443.81;10446090;27;96969;-87
2023/07/28 14:26:03;;;;;;;3.17;1.10;;;31.00;58.60;;;30.13;37.70;99437.97;10414343;27;97962;-89
2023/07/28 14:31:07;;;;;;;1.83;1.33;;;31.30;57.60;;;30.18;38.50;99426.88;10418537;27;96650;-89
2023/07/28 14:36:10;;;;;;;1.58;1.10;;;31.40;57.80;;;30.46;37.39;99422.75;10390133;27;96557;-89
2023/07/28 14:41:14;;;;;;;1.67;1.20;;;31.70;56.70;;;30.68;37.72;99413.66;10421401;27;96674;-89
2023/07/28 14:46:18;;;;;;;1.40;1.05;;;32.10;56.30;;;30.95;36.57;99409.81;10402712;27;96645;-89
2023/07/28 14:51:22;;;;;;;2.72;1.20;;;32.70;55.60;;;31.36;36.42;99406.59;10404619;27;98644;-89
2023/07/28 14:56:27;;;;;;;1.60;1.17;;;33.30;55.60;;;31.98;35.15;99408.09;10413744;27;97109;-89
2023/07/28 15:01:32;;;;;;;3.95;1.50;;;34.10;54.30;;;32.41;35.44;99409.84;10391821;28;96604;-89
2023/07/28 15:06:36;;;;;;;2.25;1.17;;;34.60;54.10;;;33.12;34.13;99404.34;10416856;27;97304;-89
2023/07/28 15:11:40;;;;;;;1.55;1.10;;;35.10;53.30;;;33.67;32.54;99392.16;10406352;27;97983;-89
2023/07/28 15:16:43;;;;;;;3.90;1.30;;;35.60;51.90;;;34.01;32.31;99382.72;10397552;27;96493;-89
2023/07/28 15:21:47;;;;;;;3.22;1.30;;;35.90;51.40;;;34.43;31.75;99393.53;10411884;27;97017;-90
2023/07/28 15:26:51;;;;;;;4.35;1.83;;;36.20;51.90;;;34.50;31.42;99385.47;10424319;27;98444;-89
2023/07/28 15:31:55;;;;;;;4.15;1.40;;;36.30;50.70;;;34.43;31.09;99398.22;10388151;27;97502;-89
2023/07/28 15:37:03;;;;;;;2.40;1.27;;;36.30;50.10;;;34.56;31.07;99395.13;10408632;27;98181;-89
2023/07/28 15:42:07;;;;;;;2.38;1.40;;;36.30;49.90;;;33.87;30.48;99406.19;10415001;27;96556;-89
2023/07/28 15:47:10;;;;;;;1.90;1.30;;;35.60;49.50;;;32.99;31.80;99421.94;10409321;27;96782;-88
2023/07/28 15:52:14;;;;;;;2.40;1.50;;;34.50;50.70;;;31.95;33.13;99436.22;10426922;27;96776;-88
2023/07/28 15:57:17;;;;;;;2.10;1.40;;;33.30;51.60;;;31.05;34.92;99439.66;10448540;27;97772;-89
2023/07/28 16:02:21;;;;;;;4.45;1.55;;;32.20;53.20;;;30.20;36.12;99468.47;10421404;27;97003;-88
2023/07/28 16:22:09;;;;;;;6.45;2.10;;;30.50;57.20;;;23.33;71.47;99623.09;10486269;27;1387515;-83
2023/07/28 16:27:13;;;;;;;5.88;2.40;;;25.00;81.80;;;22.04;76.83;99587.28;10442693;27;98358;-87
2023/07/28 16:32:16;;;;;;;5.68;2.05;;;23.30;87.80;;;21.53;82.79;99578.72;10456857;27;97507;-84
2023/07/28 16:37:20;;;;;;;3.92;2.28;;;22.60;91.00;;;21.24;91.25;99612.41;10484929;27;99013;-83
2023/07/28 16:42:24;;;;;;;3.38;2.10;;;22.20;93.10;;;20.99;94.13;99610.19;10467822;27;97000;-83
2023/07/28 16:47:28;;;;;;;2.95;1.80;;;22.00;95.70;;;20.79;97.04;99610.72;10455997;27;98170;-85
2023/07/28 16:52:32;;;;;;;2.65;1.80;;;21.70;98.80;;;20.66;100.00;99619.19;10463565;27;96700;-85
2023/07/28 16:57:36;;;;;;;4.30;2.08;;;21.50;99.90;;;20.53;100.00;99613.06;10458034;27;98205;-84
2023/07/28 17:02:40;;;;;;;3.50;2.00;;;21.40;99.90;;;20.39;100.00;99611.75;10445234;27;96679;-84
2023/07/28 17:07:43;;;;;;;3.40;2.20;;;21.30;99.90;;;20.30;100.00;99602.41;10461780;27;96764;-84
2023/07/28 17:12:47;;;;;;;5.70;2.83;;;21.20;99.90;;;20.23;100.00;99610.69;10462885;27;96594;-85
2023/07/28 17:17:50;;;;;;;2.92;2.00;;;21.20;99.90;;;20.24;100.00;99600.72;10465866;27;96731;-88
2023/07/28 17:22:54;;;;;;;4.28;2.53;;;21.10;99.90;;;20.20;100.00;99615.75;10448989;27;97542;-85
2023/07/28 17:27:57;;;;;;;4.15;2.55;;;21.10;99.90;;;20.13;100.00;99615.09;10446810;27;97398;-87
2023/07/28 17:33:01;;;;;;;3.55;2.60;;;21.00;99.90;;;20.11;100.00;99614.53;10441939;27;97468;-85
2023/07/28 17:38:07;;;;;;;6.57;2.67;;;21.00;99.90;;;20.10;100.00;99607.50;10419370;27;96953;-87
2023/07/28 17:43:10;;;;;;;4.03;2.70;;;21.00;99.90;;;20.12;100.00;99614.28;10450700;27;96564;-88
2023/07/28 17:48:15;;;;;;;3.35;2.60;;;21.10;99.90;;;20.11;100.00;99604.56;10428573;27;96688;-87
2023/07/28 17:53:19;;;;;;;4.45;2.80;;;21.10;99.90;;;20.10;100.00;99602.91;10427523;27;98844;-89
2023/07/28 17:58:23;;;;;;;4.00;2.40;;;21.00;99.90;;;20.09;100.00;99589.66;10422064;27;96702;-86
2023/07/28 18:03:27;;;;;;;5.03;2.67;;;21.10;99.90;;;20.08;100.00;99593.41;10422167;27;96811;-86
2023/07/28 18:08:31;;;;;;;3.05;2.10;;;21.00;99.90;;;20.08;100.00;99596.13;10443388;27;97799;-88
2023/07/28 18:13:35;;;;;;;5.10;2.65;;;21.00;99.90;;;20.08;100.00;99594.22;10445740;27;96958;-86
2023/07/28 18:18:39;;;;;;;3.25;2.47;;;21.00;99.90;;;20.08;100.00;99586.16;10414789;27;96668;-86
2023/07/28 18:23:43;;;;;;;3.72;2.60;;;21.00;99.90;;;20.09;100.00;99589.66;10404570;27;98575;-86
2023/07/28 18:28:47;;;;;;;4.25;2.60;;;21.00;99.90;;;20.09;100.00;99592.34;10408909;27;96690;-87
2023/07/28 18:33:50;;;;;;;3.72;2.67;;;21.10;99.90;;;20.09;100.00;99595.91;10435974;27;96566;-86
2023/07/28 18:38:54;;;;;;;4.00;2.70;;;21.00;99.90;;;20.11;100.00;99582.16;10426152;27;98252;-87
2023/07/28 18:43:57;;;;;;;5.30;2.70;;;21.00;99.90;;;20.09;100.00;99576.16;10433609;27;97427;-87
2023/07/28 18:49:01;;;;;;;4.72;3.45;;;21.10;99.90;;;20.05;100.00;99592.84;10462946;27;98221;-87
2023/07/28 18:54:04;;;;;;;5.07;3.63;;;21.00;99.90;;;20.02;100.00;99592.50;10416123;27;98787;-87
2023/07/28 18:59:08;;;;;;;5.38;3.60;;;21.00;99.90;;;19.97;100.00;99595.13;10411076;27;97458;-87
2023/07/28 19:04:11;;;;;;;6.22;4.05;;;21.00;99.90;;;19.97;100.00;99606.75;10456826;27;97806;-87
2023/07/28 19:09:15;;;;;;;4.53;3.95;;;20.90;99.90;;;19.98;100.00;99619.16;10424199;27;97399;-86
2023/07/28 19:14:21;;;;;;;4.10;3.47;;;21.00;99.90;;;20.00;100.00;99625.13;10433376;27;97462;-87
2023/07/28 19:19:25;;;;;;;4.40;3.63;;;21.00;99.90;;;20.01;100.00;99612.47;10424610;27;98188;-88
2023/07/28 19:24:28;;;;;;;5.25;3.38;;;21.00;99.90;;;20.05;100.00;99608.22;10438769;27;96757;-88
2023/07/28 19:29:32;;;;;;;7.50;3.72;;;21.10;99.90;;;20.08;100.00;99609.59;10411645;27;98217;-86
2023/07/28 19:34:36;;;;;;;3.80;3.40;;;21.10;99.90;;;20.06;100.00;99609.84;10426892;27;97218;-87
2023/07/28 19:39:42;;;;;;;5.97;3.55;;;21.10;99.90;;;20.05;100.00;99617.13;10418321;27;96607;-86
2023/07/28 19:44:46;;;;;;;5.55;3.25;;;21.10;99.90;;;20.02;100.00;99623.00;10433552;27;97316;-87
2023/07/28 19:49:50;;;;;;;6.30;3.97;;;21.10;99.90;;;19.99;100.00;99623.50;10412765;27;97377;-87
2023/07/28 19:55:13;;;;;;;4.15;3.03;;;21.10;99.90;;;19.99;100.00;99625.38;10437964;27;97431;-87
2023/07/28 20:00:17;;;;;;;4.72;2.80;;;21.00;99.90;;;19.95;100.00;99622.34;10433688;27;97331;-87
2023/07/28 20:05:21;;;;;;;5.93;2.80;;;21.00;99.90;;;19.92;100.00;99627.41;10417931;27;96706;-88
2023/07/28 20:10:26;;;;;;;5.90;3.88;;;21.00;99.90;;;19.90;100.00;99635.72;10424934;27;96729;-88
2023/07/28 20:15:29;;;;;;;5.60;3.33;;;21.00;99.90;;;19.91;100.00;99631.16;10418137;27;98897;-89
2023/07/28 20:20:33;;;;;;;4.78;2.92;;;21.00;99.90;;;19.88;100.00;99640.56;10399933;27;96814;-89
2023/07/28 20:25:36;;;;;;;6.90;2.97;;;20.90;99.90;;;19.88;100.00;99643.25;10432615;27;98404;-89
2023/07/28 20:30:40;;;;;;;4.93;2.90;;;20.90;99.90;;;19.83;100.00;99636.94;10411680;27;96656;-88
2023/07/28 20:35:43;;;;;;;3.90;3.00;;;20.90;99.90;;;19.77;100.00;99641.44;10451049;27;96618;-89
2023/07/28 20:40:47;;;;;;;5.30;3.33;;;20.80;99.90;;;19.75;100.00;99646.25;10418552;27;96732;-88
2023/07/28 20:45:51;;;;;;;7.03;3.25;;;20.80;99.90;;;19.72;100.00;99636.75;10423256;27;97192;-89
2023/07/28 20:50:55;;;;;;;5.72;3.20;;;20.80;99.90;;;19.73;100.00;99646.50;10422826;27;96787;-88
2023/07/28 20:55:59;;;;;;;4.63;3.47;;;20.70;99.90;;;19.73;100.00;99651.03;10459630;27;96770;-88
2023/07/28 21:01:04;;;;;;;4.13;2.95;;;20.80;99.90;;;19.69;100.00;99639.94;10425317;27;98079;-87
2023/07/28 21:06:08;;;;;;;4.30;2.97;;;20.80;99.90;;;19.74;100.00;99653.53;10424475;27;96682;-88
2023/07/28 21:11:11;;;;;;;4.22;3.38;;;20.80;99.90;;;19.72;100.00;99649.41;10490070;27;96619;-88
2023/07/28 21:16:15;;;;;;;5.68;3.40;;;20.80;99.90;;;19.76;100.00;99656.78;10462252;27;97452;-87
2023/07/28 21:21:19;;;;;;;4.03;3.10;;;20.80;99.90;;;19.76;100.00;99645.19;10454263;27;96680;-87
2023/07/28 21:26:22;;;;;;;3.35;2.70;;;20.80;99.90;;;19.71;100.00;99634.31;10467160;27;96757;-88
2023/07/28 21:31:26;;;;;;;4.30;2.97;;;20.80;99.90;;;19.72;100.00;99646.72;10437614;27;97723;-87
2023/07/28 21:36:30;;;;;;;5.63;3.20;;;20.80;99.90;;;19.75;100.00;99665.13;10428033;27;98438;-87
2023/07/28 21:41:33;;;;;;;3.60;2.58;;;20.80;99.90;;;19.69;100.00;99666.09;10439901;27;97151;-87
2023/07/28 21:46:38;;;;;;;5.10;3.08;;;20.80;99.90;;;19.69;100.00;99668.78;10432610;27;96568;-87
2023/07/28 21:51:42;;;;;;;3.53;2.65;;;20.80;99.90;;;19.65;100.00;99670.31;10444222;27;98179;-89
2023/07/28 21:56:46;;;;;;;5.07;2.58;;;20.80;99.90;;;19.65;100.00;99673.00;10421032;27;96647;-89
2023/07/28 22:01:50;;;;;;;4.55;3.20;;;20.80;99.90;;;19.63;100.00;99670.56;10445720;27;96573;-88
2023/07/28 22:06:54;;;;;;;4.93;3.08;;;20.80;99.90;;;19.67;100.00;99666.34;10435543;27;96734;-89
2023/07/28 22:12:08;;;;;;;11.50;3.10;;;20.80;99.90;;;19.58;100.00;99664.22;10403034;27;98616;-88
2023/07/28 22:17:12;;;;;;;5.03;2.80;;;20.70;99.90;;;19.49;100.00;99661.91;10423863;27;96634;-88
2023/07/28 22:22:35;;;;;;;4.15;2.63;;;20.60;99.90;;;19.50;100.00;99673.50;10412409;27;96544;-88
2023/07/28 22:27:46;;;;;;;5.53;2.58;;;20.60;99.90;;;19.48;100.00;99679.09;10372591;22;96877;-86
2023/07/28 22:32:50;;;;;;;3.53;2.40;;;20.60;99.90;;;19.46;100.00;99678.53;10279909;28;96704;-86
2023/07/28 22:37:53;;;;;;;5.32;2.25;;;20.60;99.90;;;19.43;100.00;99681.72;10264927;28;96791;-87
2023/07/28 22:42:58;;;;;;;3.28;2.42;;;20.60;99.90;;;19.42;100.00;99688.13;10296736;28;96718;-87
2023/07/28 22:48:02;;;;;;;6.80;3.03;;;20.60;99.90;;;19.41;100.00;99677.63;10272693;28;96693;-86
2023/07/28 22:53:06;;;;;;;4.00;3.15;;;20.60;99.90;;;19.36;100.00;99693.66;10261380;28;96505;-87
2023/07/28 22:58:09;;;;;;;4.07;2.70;;;20.50;99.90;;;19.31;100.00;99689.00;10258603;28;96644;-87
2023/07/28 23:03:13;;;;;;;5.25;3.08;;;20.40;99.90;;;19.28;100.00;99691.34;10257893;28;96633;-87
2023/07/28 23:08:16;;;;;;;6.20;2.97;;;20.40;99.90;;;19.22;100.00;99693.13;10281886;28;98529;-86
2023/07/28 23:13:21;;;;;;;3.47;2.80;;;20.30;99.90;;;19.14;100.00;99691.59;10280796;28;96716;-86
2023/07/28 23:18:25;;;;;;;5.30;3.25;;;20.20;99.90;;;19.09;100.00;99682.59;10254360;28;96719;-86
2023/07/28 23:23:28;;;;;;;8.25;2.90;;;20.10;99.90;;;19.02;100.00;99681.91;10264752;28;96634;-86
2023/07/28 23:28:32;;;;;;;5.28;2.80;;;20.10;99.90;;;18.96;100.00;99676.41;10258676;28;96739;-86
2023/07/28 23:33:36;;;;;;;4.97;2.83;;;20.00;99.90;;;18.90;100.00;99671.97;10276406;28;98099;-86
2023/07/28 23:38:40;;;;;;;5.25;2.58;;;20.00;99.90;;;18.84;100.00;99674.78;10261386;28;96726;-87
2023/07/28 23:43:43;;;;;;;2.85;2.65;;;19.90;99.90;;;18.80;100.00;99679.78;10278109;28;96565;-86
2023/07/28 23:48:47;;;;;;;4.60;2.70;;;19.90;99.90;;;18.80;100.00;99674.41;10277966;28;96531;-86
2023/07/28 23:53:50;;;;;;;4.05;2.75;;;19.90;99.90;;;18.80;100.00;99666.34;10278164;28;96807;-86